Main page
METAR-TAF:

METAR-TAF

Airports :

Salamanca Airport

Salamanca, Spain

latitude: 40-57N, longitude: 005-30W, elevation: 793 m

Current weather observation

The report was made 44 minutes ago, at 21:00 UTC
Wind 13 kt from the East/Northeast
Temperature 8°C
Humidity 46%
Pressure 1021 hPa
Visibility 10 km or more
no clouds below 1500 m and no cumulonimbus

METAR: LESA 222100Z AUTO 07013KT CAVOK 08/M03 Q1021

Time: 23:44 (21:44 UTC)

Forecast

The report was made 1 hour and 44 minutes ago, at 20:00 UTC
Forecast valid from 22 at 21 UTC to 23 at 21 UTC
Wind 12 kt from the Northeast
Visibility 10 km or more
no clouds below 1500 m and no cumulonimbus
Becoming
from 23 at 00 UTC to 23 at 02 UTC
Wind 6 kt from the Northeast

TAF: LESA 222000Z 2221/2321 04012KT CAVOK TX17/2315Z TNM01/2306Z BECMG 2300/2302 04006KT

Weather observations and forecasts of more than 4000 airports (METAR and TAF reports).

The available stations are represented by yellow and red dots on the map.

Hover mouse over dot to see the name of the station.

Then click to see weather observations and forecasts.

To change the map : click on the green buttons with a black cross to zoom in, on the green button with a dash to zoom out, or on the green arrows for adjacent maps.


METAR-TAF: